Latest Weather Observations for Parafield

IDS60901

Issued at 6:41 am CDT Thursday 5 March 2015 (issued every 10 minutes, with the page automatically refreshed every 10 minutes)

About weather observations | Map of Adelaide area stations | Latest observations for Adelaide area | Other Formats
Station Details ID: 023013 Name: PARAFIELD AIRPORT Lat: -34.80 Lon: 138.63 Height: 9.5 m
Data from the previous 72 hours. | See also: Recent months at Parafield
Date/Time
CDT
Tmp

°C
App
Tmp
°C
Dew
Point
°C
Rel
Hum
%
Delta-T

°C
Wind Press
QNH
hPa
Press
MSL
hPa
Rain
since
9 am
mm
Dir
 
Spd
km/h
Gust
km/h
Spd
kts
Gust
kts
05/06:30am 15.6 12.1 8.6 63 3.5 S 17 20 9 11 1020.7 1020.7 0.2
05/06:00am 16.0 12.9 8.7 62 3.7 S 15 20 8 11 1020.3 1020.3 0.2
05/05:30am 15.9 11.1 8.9 63 3.6 S 24 33 13 18 1020.3 1020.3 0.2
05/05:00am 16.4 10.9 9.1 62 3.8 S 28 37 15 20 1020.0 1020.0 0.2
05/04:30am 16.7 11.2 9.1 61 3.9 SSW 28 39 15 21 1019.6 1019.6 0.2
05/04:00am 17.1 12.6 11.4 69 3.1 S 26 37 14 20 1019.4 1019.4 0.2
05/03:30am 17.3 13.0 12.0 71 2.9 S 26 33 14 18 1019.2 1019.2 0.2
05/03:00am 17.2 13.6 12.9 76 2.4 S 24 32 13 17 1018.9 1018.9 0.2
05/02:36am 17.7 13.3 13.0 74 2.6 SSW 28 46 15 25 1018.9 1018.9 0.2
05/02:30am 18.1 14.5 13.2 73 2.8 SSW 24 35 13 19 1019.0 1019.0 0.0
05/02:00am 17.4 13.7 12.7 74 2.6 SSW 24 35 13 19 1019.3 1019.3 0.0
05/01:30am 18.4 14.6 13.5 73 2.8 SW 26 37 14 20 1019.3 1019.3 0.0
05/01:00am 18.0 14.8 14.3 79 2.1 SW 24 32 13 17 1019.0 1019.0 0.0
05/12:30am 17.2 12.2 14.1 82 1.8 SW 33 56 18 30 1019.1 1019.1 0.0
05/12:26am 17.8 13.3 13.7 77 2.3 SW 30 56 16 30 1019.0 1019.0 0.0
05/12:00am 18.2 15.3 14.1 77 2.3 SW 22 32 12 17 1019.1 1019.1 0.0
 
Date/Time
CDT
Tmp

°C
App
Tmp
°C
Dew
Point
°C
Rel
Hum
%
Delta-T

°C
Wind Press
QNH
hPa
Press
MSL
hPa
Rain
since
9 am
mm
Dir
 
Spd
km/h
Gust
km/h
Spd
kts
Gust
kts
04/11:30pm 19.2 15.6 12.9 67 3.5 SW 24 33 13 18 1018.7 1018.7 0.0
04/11:00pm 19.1 15.4 12.6 66 3.6 WSW 24 35 13 19 1019.1 1019.1 0.0
04/10:30pm 17.6 13.2 12.9 74 2.6 WSW 28 43 15 23 1019.4 1019.4 0.0
04/10:00pm 19.6 15.4 12.4 63 4.0 WSW 26 33 14 18 1018.9 1018.9 0.0
04/09:30pm 19.4 14.2 11.7 61 4.2 WSW 30 39 16 21 1018.6 1018.6 0.0
04/09:00pm 19.3 14.5 11.8 62 4.1 SW 28 43 15 23 1018.2 1018.2 0.0
04/08:30pm 19.2 14.3 12.5 65 3.7 SW 30 41 16 22 1017.8 1017.8 0.0
04/08:00pm 19.9 15.1 11.7 59 4.5 WSW 28 39 15 21 1017.5 1017.5 0.0
04/07:30pm 20.2 16.6 11.9 59 4.6 SW 22 32 12 17 1017.4 1017.4 0.0
04/07:00pm 20.1 14.8 11.3 57 4.8 SW 30 39 16 21 1017.1 1017.1 0.0
04/06:30pm 21.4 16.9 11.4 53 5.5 SW 26 35 14 19 1017.0 1017.0 0.0
04/06:00pm 21.3 16.6 10.8 51 5.7 SW 26 35 14 19 1017.0 1017.0 0.0
04/05:30pm 21.9 17.8 11.3 51 5.9 SW 24 33 13 18 1016.9 1016.9 0.0
04/05:00pm 22.8 18.8 11.8 50 6.2 SW 24 35 13 19 1016.8 1016.8 0.0
04/04:30pm 22.0 17.3 10.8 49 6.2 SW 26 33 14 18 1017.0 1017.0 0.0
04/04:00pm 22.8 19.0 9.9 44 7.0 SW 20 30 11 16 1017.1 1017.1 0.0
04/03:30pm 22.6 18.8 9.7 44 7.0 SW 20 32 11 17 1017.5 1017.5 0.0
04/03:00pm 21.9 16.9 9.4 45 6.7 SSW 26 35 14 19 1017.9 1017.9 0.0
04/02:30pm 22.1 18.2 9.3 44 6.8 SW 20 32 11 17 1018.3 1018.3 0.0
04/02:00pm 21.8 18.2 9.7 46 6.5 SW 19 30 10 16 1018.5 1018.5 0.0
04/01:30pm 20.8 16.5 9.4 48 6.1 SW 22 32 12 17 1018.7 1018.7 0.0
04/01:00pm 21.6 17.7 9.5 46 6.5 SW 20 30 11 16 1018.6 1018.6 0.0
04/12:30pm 21.5 17.9 9.7 47 6.3 WSW 19 28 10 15 1018.8 1018.8 0.0
04/12:00pm 21.2 17.3 9.4 47 6.3 WSW 20 30 11 16 1019.4 1019.4 0.0
04/11:30am 20.6 17.1 8.9 47 6.2 WSW 17 24 9 13 1019.5 1019.5 0.0
04/11:00am 20.3 17.1 10.1 52 5.5 W 17 26 9 14 1019.4 1019.4 0.0
04/10:30am 19.3 16.1 10.0 55 5.0 WSW 17 22 9 12 1019.6 1019.6 0.0
04/10:00am 19.2 17.5 9.9 55 5.0 W 9 15 5 8 1019.6 1019.6 0.0
04/09:30am 18.6 17.8 9.7 56 4.7 SW 4 7 2 4 1019.5 1019.5 0.0
04/09:00am 17.9 16.6 9.8 59 4.3 ENE 7 9 4 5 1019.2 1019.2 0.0
04/08:30am 16.9 15.7 10.3 65 3.5 NE 7 9 4 5 1019.2 1019.2 0.0
04/08:00am 14.4 13.3 10.8 79 1.9 ENE 7 9 4 5 1019.0 1019.0 0.0
04/07:30am 13.0 11.6 9.4 79 1.8 NE 7 9 4 5 1018.8 1018.8 0.0
04/07:00am 13.5 13.4 9.6 77 2.0 CALM 0 0 0 0 1018.4 1018.4 0.0
04/06:30am 13.3 13.3 9.9 80 1.7 CALM 0 0 0 0 1018.3 1018.3 0.0
04/06:00am 13.4 13.3 9.5 77 2.0 CALM 0 0 0 0 1018.0 1018.0 0.0
04/05:30am 13.8 13.9 10.0 78 2.0 CALM 0 6 0 3 1018.0 1018.0 0.0
04/05:00am 13.6 12.3 9.8 78 2.0 SW 7 11 4 6 1017.8 1017.8 0.0
04/04:30am 14.7 13.6 10.5 76 2.2 SSW 7 9 4 5 1017.5 1017.5 0.0
04/04:00am 14.0 12.3 10.0 77 2.1 S 9 11 5 6 1017.5 1017.5 0.0
04/03:30am 14.7 13.1 10.3 75 2.3 SSW 9 11 5 6 1017.9 1017.9 0.0
04/03:00am 15.0 13.5 10.4 74 2.4 SSW 9 11 5 6 1018.1 1018.1 0.0
04/02:30am 15.2 13.4 10.8 75 2.3 SSW 11 13 6 7 1018.3 1018.3 0.0
04/02:00am 14.9 13.3 10.1 73 2.5 SSW 9 11 5 6 1018.8 1018.8 0.0
04/01:30am 14.8 13.1 10.0 73 2.5 SSW 9 11 5 6 1018.8 1018.8 0.0
04/01:00am 15.0 13.9 9.8 71 2.7 S 6 9 3 5 1018.7 1018.7 0.0
04/12:30am 15.8 14.1 9.7 67 3.2 SE 9 13 5 7 1018.5 1018.5 0.0
04/12:00am 16.2 14.4 9.4 64 3.5 ESE 9 13 5 7 1018.8 1018.8 0.0
 
Date/Time
CDT
Tmp

°C
App
Tmp
°C
Dew
Point
°C
Rel
Hum
%
Delta-T

°C
Wind Press
QNH
hPa
Press
MSL
hPa
Rain
since
9 am
mm
Dir
 
Spd
km/h
Gust
km/h
Spd
kts
Gust
kts
03/11:30pm 16.7 14.0 9.1 61 3.9 SE 13 19 7 10 1018.9 1018.9 0.0
03/11:00pm 17.8 14.8 9.2 57 4.5 SE 15 19 8 10 1018.8 1018.8 0.0
03/10:30pm 18.3 14.9 9.1 55 4.8 SE 17 24 9 13 1018.6 1018.6 0.0
03/10:00pm 18.6 15.6 9.4 55 4.8 SE 15 20 8 11 1018.5 1018.5 0.0
03/09:30pm 19.4 16.0 9.3 52 5.3 SE 17 20 9 11 1018.0 1018.0 0.0
03/09:00pm 20.2 16.2 9.2 49 5.8 SE 20 24 11 13 1017.7 1017.7 0.0
03/08:30pm 21.0 17.3 9.3 47 6.2 SE 19 24 10 13 1017.1 1017.1 0.0
03/08:00pm 21.8 17.8 9.0 44 6.8 SE 20 28 11 15 1016.6 1016.6 0.0
03/07:30pm 23.2 19.0 8.1 38 8.0 SE 20 26 11 14 1016.0 1016.0 0.0
03/07:00pm 25.0 22.3 8.9 36 8.7 SE 13 19 7 10 1015.6 1015.6 0.0
03/06:30pm 25.7 22.3 9.1 35 9.0 SSE 17 28 9 15 1015.2 1015.2 0.0
03/06:00pm 26.2 21.3 10.0 36 9.0 WSW 26 32 14 17 1014.9 1014.9 0.0
03/05:30pm 27.6 23.7 10.8 35 9.5 WSW 22 32 12 17 1014.8 1014.8 0.0
03/05:00pm 28.0 24.2 9.8 32 10.2 W 20 28 11 15 1014.9 1014.9 0.0
03/04:30pm 27.3 23.6 10.1 34 9.6 WSW 20 26 11 14 1015.1 1015.1 0.0
03/04:00pm 28.5 24.7 9.7 31 10.5 W 20 30 11 16 1015.1 1015.1 0.0
03/03:30pm 27.6 23.8 9.9 33 9.9 W 20 28 11 15 1015.4 1015.4 0.0
03/03:00pm 27.3 23.8 10.9 36 9.3 WSW 20 28 11 15 1015.7 1015.7 0.0
03/02:30pm 27.3 23.5 11.3 37 9.1 WSW 22 28 12 15 1016.0 1016.0 0.0
03/02:00pm 26.3 22.9 11.2 38 8.6 W 20 30 11 16 1016.2 1016.2 0.0
03/01:30pm 26.2 23.4 10.0 36 9.0 W 15 24 8 13 1016.5 1016.5 0.0
03/01:00pm 26.2 24.0 9.5 35 9.2 WSW 11 20 6 11 1016.8 1016.8 0.0
03/12:30pm 25.1 22.9 9.4 37 8.6 W 11 17 6 9 1017.5 1017.5 0.0
03/12:00pm 24.7 22.4 9.0 37 8.5 W 11 17 6 9 1018.1 1018.1 0.0
03/11:30am 24.3 22.8 9.1 38 8.2 SE 7 11 4 6 1018.4 1018.4 0.0
03/11:00am 23.4 22.0 9.4 41 7.6 SE 7 11 4 6 1018.5 1018.5 0.0
03/10:30am 23.1 21.6 9.1 41 7.5 SE 7 13 4 7 1018.1 1018.1 0.0
03/10:00am 22.2 20.5 9.7 45 6.8 SE 9 15 5 8 1018.3 1018.3 0.0
03/09:30am 20.5 18.5 10.0 51 5.6 SE 11 15 6 8 1018.2 1018.2 0.0
03/09:00am 19.9 17.6 10.3 54 5.2 SE 13 19 7 10 1018.1 1018.1 0.0
03/08:30am 19.0 17.3 9.8 55 4.9 SE 9 11 5 6 1017.8 1017.8 0.0
03/08:00am 17.9 16.5 9.5 58 4.4 E 7 11 4 6 1017.3 1017.3 0.0
03/07:30am 15.3 14.9 9.9 70 2.8 ESE 2 6 1 3 1016.9 1016.9 0.0
03/07:00am 16.6 15.5 10.0 65 3.5 E 6 7 3 4 1016.3 1016.3 0.0
03/06:30am 16.6 15.6 10.2 66 3.4 SE 6 9 3 5 1015.9 1015.9 0.0
03/06:00am 16.6 16.5 10.7 68 3.1 NE 2 7 1 4 1016.0 1016.0 0.0
03/05:30am 17.0 16.2 11.1 68 3.2 ESE 6 7 3 4 1015.6 1015.6 0.0
03/05:00am 17.1 16.2 11.2 68 3.2 E 7 11 4 6 1015.5 1015.5 0.0
03/04:30am 17.2 15.9 11.2 68 3.2 E 9 13 5 7 1015.5 1015.5 0.0
03/04:00am 18.0 15.3 11.6 66 3.5 SE 17 22 9 12 1015.5 1015.5 0.0
03/03:30am 18.2 17.4 11.7 66 3.6 SE 7 11 4 6 1015.5 1015.5 0.0
03/03:00am 18.9 17.4 11.9 64 3.9 SE 11 15 6 8 1015.4 1015.4 0.0
03/02:30am 18.5 17.4 12.0 66 3.6 SE 9 15 5 8 1015.5 1015.5 0.0
03/02:00am 19.1 16.7 12.6 66 3.6 ESE 17 24 9 13 1015.4 1015.4 0.0
03/01:30am 19.5 18.6 12.5 64 3.9 SSE 9 15 5 8 1015.9 1015.9 0.0
03/01:00am 20.0 18.8 11.5 58 4.7 SE 9 19 5 10 1015.9 1015.9 0.0
03/12:30am 19.5 18.6 11.3 59 4.5 SSW 7 11 4 6 1015.7 1015.7 0.0
03/12:00am 19.8 20.0 11.8 60 4.4 ESE 2 6 1 3 1015.7 1015.7 0.0
 
Date/Time
CDT
Tmp

°C
App
Tmp
°C
Dew
Point
°C
Rel
Hum
%
Delta-T

°C
Wind Press
QNH
hPa
Press
MSL
hPa
Rain
since
9 am
mm
Dir
 
Spd
km/h
Gust
km/h
Spd
kts
Gust
kts
02/11:30pm 20.0 19.6 12.3 61 4.3 E 6 9 3 5 1015.7 1015.7 0.0
02/11:00pm 20.3 20.2 13.3 64 4.0 SSE 6 7 3 4 1015.9 1015.9 0.0
02/10:30pm 20.5 19.7 13.9 66 3.8 SSW 11 15 6 8 1016.0 1016.0 0.0
02/10:00pm 21.0 18.6 13.9 64 4.1 SSW 19 24 10 13 1015.8 1015.8 0.0
02/09:30pm 21.5 18.5 12.6 57 5.0 SW 20 28 11 15 1015.8 1015.8 0.0
02/09:00pm 22.5 18.8 10.0 45 6.8 SSW 20 26 11 14 1015.4 1015.4 0.0
02/08:30pm 23.1 19.8 8.0 38 7.9 SW 15 20 8 11 1014.9 1014.9 0.0
02/08:00pm 23.1 18.9 7.6 37 8.1 SSW 19 26 10 14 1014.4 1014.4 0.0
02/07:30pm 23.7 19.3 7.3 35 8.6 SW 20 26 11 14 1014.0 1014.0 0.0
02/07:00pm 24.7 20.2 6.0 30 9.6 SW 19 26 10 14 1014.0 1014.0 0.0
02/06:30pm 25.3 20.3 4.4 26 10.4 SSW 20 26 11 14 1013.4 1013.4 0.0
02/06:00pm 25.5 20.8 5.1 27 10.3 SSW 19 24 10 13 1013.4 1013.4 0.0
02/05:30pm 25.7 20.8 5.3 27 10.4 SSW 20 24 11 13 1012.7 1012.7 0.0
02/05:00pm 26.2 22.4 5.7 27 10.6 SW 15 20 8 11 1013.0 1013.0 0.0
02/04:30pm 25.8 21.2 6.4 29 10.1 SW 20 24 11 13 1012.9 1012.9 0.0
02/04:00pm 26.2 21.2 4.6 25 10.9 SW 20 26 11 14 1013.0 1013.0 0.0
02/03:30pm 26.9 21.0 4.0 23 11.5 SW 24 30 13 16 1013.1 1013.1 0.0
02/03:00pm 27.6 22.9 3.3 21 12.1 WSW 17 26 9 14 1012.9 1012.9 0.0
02/02:30pm 28.2 25.0 3.1 20 12.5 W 9 17 5 9 1013.0 1013.0 0.0
02/02:00pm 27.3 24.6 2.4 20 12.2 SW 6 15 3 8 1013.0 1013.0 0.0
02/01:30pm 27.5 24.2 2.6 20 12.2 NNE 9 13 5 7 1013.4 1013.4 0.0
02/01:00pm 27.2 22.7 4.3 23 11.6 N 17 20 9 11 1013.7 1013.7 0.0
02/12:30pm 27.1 22.4 6.0 26 11.0 N 20 30 11 16 1014.1 1014.1 0.0
02/12:00pm 26.8 21.9 5.1 25 11.1 N 20 32 11 17 1014.4 1014.4 0.0
02/11:30am 26.1 21.2 5.1 26 10.7 NNE 20 30 11 16 1014.5 1014.5 0.0
02/11:00am 25.7 22.5 6.8 30 9.9 NE 13 19 7 10 1015.2 1015.2 0.0
02/10:30am 24.6 21.0 6.8 32 9.2 NNE 15 24 8 13 1015.8 1015.8 0.0
02/10:00am 22.9 19.3 6.6 35 8.4 NE 15 20 8 11 1016.0 1016.0 0.0
02/09:30am 22.2 18.6 6.8 37 7.9 NNE 15 19 8 10 1015.7 1015.7 0.0
02/09:00am 20.9 18.1 6.8 40 7.2 NE 11 17 6 9 1015.6 1015.6 0.0
02/08:30am 19.8 17.7 8.2 47 6.0 NNW 9 13 5 7 1015.5 1015.5 0.0
02/08:00am 19.0 16.4 7.8 48 5.7 NNE 11 19 6 10 1016.1 1016.1 0.0
02/07:30am 18.2 15.9 7.6 50 5.4 NE 9 15 5 8 1015.5 1015.5 0.0
02/07:00am 17.9 15.3 7.6 51 5.2 NE 11 20 6 11 1015.0 1015.0 0.0

Latest Capital City Observations: Canberra | Sydney | Melbourne | Brisbane | Adelaide | Perth | Hobart | Darwin

Other Formats:

Comma delimited format used in spreadsheet applications
http://www.bom.gov.au/fwo/IDS60901/IDS60901.95677.axf

JavaScript Object Notation format (JSON) in row-major order
http://www.bom.gov.au/fwo/IDS60901/IDS60901.95677.json